Date,TemperatureHighF,TemperatureAvgF,TemperatureLowF,DewpointHighF,DewpointAvgF,DewpointLowF,HumidityHigh,HumidityAvg,HumidityLow,PressureMaxIn,PressureMinIn,WindSpeedMaxMPH,WindSpeedAvgMPH,GustSpeedMaxMPH,PrecipitationSumIn
2013-1-1,46,42,37,43,37,25,90,83,57,30.02,29.88,6,0,6,1.14
2013-1-2,42,38,36,38,29,0,87,70,20,30.09,29.92,6,0,6,0.00
2013-1-3,44,37,31,26,20,3,65,52,19,30.27,30.07,6,0,6,0.00
2013-1-4,43,34,26,19,15,2,64,47,19,30.34,30.25,6,0,6,0.00
2013-1-5,46,36,27,31,16,4,74,48,19,30.31,30.14,7,1,7,0.06
2013-1-6,46,40,36,35,32,23,83,71,53,30.21,30.04,12,2,12,0.00
2013-1-7,49,37,30,24,21,18,64,52,34,30.32,30.20,7,0,7,0.00
2013-1-8,52,39,29,31,25,0,73,57,35,30.31,30.20,7,0,7,0.00
2013-1-9,49,45,39,46,38,28,89,76,62,30.37,30.22,5,0,5,0.10
2013-1-10,50,49,48,47,46,45,91,89,86,30.36,30.32,6,1,6,0.00
2013-1-30,51,51,51,48,48,-2,90,90,90,29.27,29.27,1,0,1,0.00
2013-2-2,36,33,27,26,21,10,69,62,45,30.20,29.97,14,2,14,0.00
2013-2-3,44,36,30,33,23,13,85,60,33,30.07,29.90,15,1,15,0.08
2013-2-4,47,35,26,23,17,-38,66,51,19,30.06,29.87,11,0,11,0.00
2013-2-5,56,50,43,35,31,19,63,48,35,29.94,29.85,14,2,14,0.00
2013-2-6,58,47,35,36,27,18,80,51,22,30.12,29.94,9,0,9,0.00
2013-2-7,106,48,42,81,28,21,72,48,31,30.07,29.86,4,0,4,0.00
2013-2-8,56,46,37,46,32,22,96,59,36,30.19,29.83,86,0,86,0.12
2013-2-9,52,42,31,23,14,3,60,36,19,30.25,30.13,61,1,61,0.12
2013-2-10,59,47,39,44,27,4,85,49,19,30.15,29.89,15,1,15,0.24
2013-2-11,56,51,45,52,39,23,96,67,33,30.05,29.89,11,2,11,0.02
2013-2-12,53,46,39,34,23,14,65,42,22,30.09,29.78,9,0,9,0.06
2013-2-13,46,42,38,44,35,28,91,76,64,29.90,29.61,15,1,15,0.29
2013-2-14,52,44,36,93,28,25,70,55,36,29.99,29.90,12,2,12,0.00
2013-2-15,53,42,36,35,30,26,72,63,41,30.02,29.93,12,1,12,0.02
2013-2-16,38,32,26,26,10,-11,68,42,19,30.04,29.92,10,1,10,0.00
2013-2-17,42,30,20,5,-2,-12,44,26,19,30.17,30.04,57,1,57,0.00
2013-2-18,57,41,26,18,12,1,45,31,19,30.20,29.90,20,3,20,0.00
2013-2-19,52,44,35,39,25,-3,88,54,19,30.11,29.84,19,5,19,0.20
2013-2-20,43,35,28,10,1,-7,45,24,19,30.16,30.08,10,0,10,0.00
2013-2-21,103,38,27,33,8,-7,76,31,19,30.15,29.89,11,1,11,0.51
2013-2-22,54,47,38,42,39,32,85,74,58,29.99,29.91,12,1,12,0.10
2013-2-23,56,50,44,45,42,38,87,77,58,29.95,29.75,7,0,7,0.06
2013-2-24,56,44,34,38,21,5,80,45,19,29.99,29.84,5,0,5,0.00
2013-2-25,56,45,36,26,18,12,45,35,23,29.97,29.70,8,0,8,0.00
2013-2-26,59,48,41,46,38,25,89,69,38,29.71,29.38,21,4,21,0.49
2013-2-27,48,41,38,32,28,24,71,61,45,29.78,29.62,15,3,15,0.00
2013-2-28,40,37,34,25,20,13,68,50,35,29.91,29.73,14,2,14,0.00
2013-3-1,43,38,34,28,25,22,70,60,44,29.91,29.85,11,0,11,0.02
2013-3-2,42,35,31,29,22,9,80,59,37,29.98,29.85,9,0,9,0.12
2013-3-3,37,31,26,15,5,-6,54,35,19,30.01,29.96,9,0,9,0.00
2013-3-4,50,37,23,19,10,-1,65,37,19,30.10,29.89,9,0,9,0.00
2013-3-5,48,40,34,46,30,8,96,71,26,29.94,29.55,26,2,26,1.53
2013-3-6,36,32,29,26,22,17,75,66,59,30.17,29.78,21,2,21,0.02
2013-3-7,39,35,32,25,22,0,72,60,49,30.26,30.12,6,1,6,0.00
2013-3-8,106,40,29,21,18,6,62,43,19,30.31,30.19,9,2,9,0.00
2013-3-9,61,47,33,28,22,17,59,39,19,30.22,30.07,12,2,12,0.00
2013-3-10,69,56,44,34,26,16,61,35,19,30.08,29.90,13,2,13,0.00
2013-3-11,64,56,46,49,42,23,86,61,28,29.90,29.67,16,4,16,0.63
2013-3-12,55,46,40,36,27,18,69,49,26,30.02,29.80,10,2,10,0.00
2013-3-13,47,39,35,25,10,-3,65,34,19,30.23,29.99,16,2,16,0.00
2013-3-14,49,42,30,17,4,-5,38,21,19,30.31,30.14,10,2,10,0.00
2013-3-15,67,49,35,36,27,16,66,45,26,30.17,29.81,15,2,15,0.00
2013-3-16,75,64,55,39,36,18,45,37,19,29.83,29.70,21,5,21,0.00
2013-3-17,73,64,56,43,39,36,58,41,28,29.89,29.76,17,2,17,0.00
2013-3-18,63,56,52,50,45,37,87,68,44,29.82,29.68,29,3,29,1.15
2013-3-19,59,49,0,50,25,-5,90,44,19,30.05,29.77,13,2,13,0.04
2013-3-20,56,44,34,26,8,-3,54,24,19,30.05,29.80,57,2,57,0.00
2013-3-21,43,34,25,6,-4,-12,28,19,19,29.94,29.85,11,1,11,0.00
2013-3-22,47,37,28,16,0,-9,33,20,19,29.99,29.90,8,0,8,0.00
2013-3-23,55,46,39,36,29,17,73,53,34,29.94,29.67,8,0,8,0.02
2013-3-24,56,49,41,49,42,26,89,77,53,29.72,29.30,19,2,19,0.88
2013-3-25,86,35,31,75,22,-2,76,60,19,29.93,29.53,60,6,60,0.02
2013-3-26,42,35,31,25,21,15,72,56,37,30.20,29.93,10,1,10,0.02
2013-3-27,52,41,32,22,16,0,63,39,19,30.24,30.16,11,0,11,0.02
2013-3-28,59,43,30,24,15,3,58,36,19,30.27,30.14,8,0,8,0.02
2013-3-29,50,42,35,39,25,1,83,54,19,30.27,30.14,6,0,6,0.20
2013-3-30,61,50,42,46,39,34,85,69,38,30.15,29.92,7,0,7,0.20
2013-3-31,60,54,51,53,50,46,96,84,60,29.93,29.78,14,2,14,0.61
2013-4-1,63,52,42,47,37,24,88,61,25,29.99,29.81,13,1,13,0.02
2013-4-2,57,47,37,30,15,-2,49,30,19,30.15,29.99,22,0,22,0.00
2013-4-3,58,48,37,16,9,-1,30,20,19,30.19,30.08,12,1,12,0.00
2013-4-4,50,44,42,38,28,6,82,59,19,30.10,29.89,8,1,8,0.65
2013-4-5,67,52,40,41,32,21,84,53,19,30.01,29.89,7,1,7,0.02
2013-4-6,71,56,40,36,30,23,73,41,19,30.11,29.96,12,1,12,0.00
2013-4-7,73,62,51,39,32,26,48,34,19,30.07,29.96,17,3,17,0.02
2013-4-8,76,66,53,48,41,36,62,42,26,30.02,29.92,21,3,21,0.02
2013-4-9,81,69,58,49,45,41,65,44,27,30.10,29.93,57,2,57,0.02
2013-4-10,85,72,59,51,48,17,68,44,19,30.04,29.80,16,2,16,0.02
2013-4-11,81,72,62,57,48,44,79,45,28,29.83,29.57,57,3,57,0.65
2013-4-12,68,59,53,57,39,22,84,51,19,29.87,29.50,57,3,57,0.18
2013-4-13,72,59,46,41,31,22,74,39,19,29.99,29.86,11,0,11,0.00
2013-4-14,69,58,48,48,37,29,70,46,25,29.97,29.85,14,0,14,0.02
2013-4-15,79,67,55,50,47,44,76,51,30,30.01,29.84,10,1,10,0.02
2013-4-16,84,72,60,57,52,48,68,50,34,30.15,30.01,11,1,11,0.00
2013-4-17,75,68,63,59,55,51,74,63,49,30.15,29.97,13,0,13,0.04
2013-4-18,83,71,60,59,50,40,85,53,22,29.98,29.75,23,3,23,0.00
2013-4-19,72,59,47,60,43,25,87,57,41,30.01,29.60,19,3,19,1.20
2013-4-20,103,51,37,80,25,18,70,39,19,30.20,30.01,8,0,8,0.00
2013-4-21,70,55,44,34,26,22,52,35,19,30.30,30.15,57,0,57,0.00
2013-4-22,73,60,48,37,32,25,59,36,19,30.25,30.05,6,0,6,0.00
2013-4-23,73,61,12,42,37,2,66,43,25,30.14,29.94,7,0,7,0.00
2013-4-24,71,60,50,59,46,37,82,60,43,30.15,29.90,19,2,19,0.15
2013-4-25,70,55,42,37,30,21,71,43,19,30.26,30.14,7,0,7,0.00
2013-4-26,68,56,44,36,30,23,60,38,19,30.32,30.20,59,0,59,0.00
2013-4-27,57,54,52,52,47,36,89,78,45,30.28,30.03,4,0,4,0.98
2013-4-28,58,55,53,56,53,50,96,92,87,30.04,29.86,7,0,7,1.78
2013-4-29,75,62,54,55,51,44,96,72,34,29.97,29.86,9,1,9,0.00
2013-4-30,82,68,53,53,48,38,84,53,24,30.00,29.88,9,1,9,0.00
2013-5-1,79,69,60,54,48,42,75,49,31,30.12,30.00,6,0,6,0.00
2013-5-2,82,68,57,68,48,45,95,49,30,30.12,30.01,6,0,6,0.00
2013-5-3,77,66,58,50,44,33,67,47,29,30.05,29.89,15,0,15,0.00
2013-5-4,82,58,54,51,45,-19,87,63,32,29.90,29.81,6,0,57,0.67
2013-5-5,58,54,52,54,50,13,90,87,19,29.81,29.69,13,0,13,1.18
2013-5-6,64,54,49,48,44,38,88,70,42,29.85,29.68,9,1,9,0.22
2013-5-7,70,58,49,52,45,40,87,64,35,29.89,29.80,6,0,6,0.00
2013-5-8,74,63,56,55,52,47,87,68,41,29.99,29.86,10,1,10,0.02
2013-5-9,82,67,55,78,51,45,93,60,29,30.04,29.94,11,1,11,0.00
2013-5-10,72,66,60,56,52,47,76,61,43,30.00,29.88,16,1,16,0.00
2013-5-11,74,66,57,63,52,21,82,63,39,29.92,29.79,59,1,59,0.45
2013-5-12,57,54,52,100,37,33,64,52,47,30.00,29.92,5,0,5,0.45
2013-5-18,68,65,64,63,61,59,91,87,81,29.99,0.00,2,0,2,0.12
2013-5-23,68,68,68,63,63,63,85,85,85,29.98,29.98,0,0,0,0.00
2013-5-27,75,73,71,52,50,48,50,44,40,30.04,30.03,0,0,0,0.12
2013-5-28,89,77,66,56,51,46,68,43,24,30.11,29.99,13,2,13,0.12
2013-5-29,90,78,68,56,52,48,58,42,27,30.14,30.01,9,1,9,0.00
2013-5-30,89,77,66,55,52,47,65,44,24,30.16,30.01,10,0,10,0.12
2013-5-31,89,77,66,58,53,48,70,45,25,30.10,29.97,11,1,11,0.00
2013-6-1,89,78,69,64,57,50,77,51,28,30.00,29.86,20,3,20,0.00
2013-6-2,80,70,67,67,64,58,89,80,54,29.90,29.81,12,1,12,2.20
2013-6-3,84,73,65,64,58,24,91,64,20,29.93,29.83,6,0,6,0.00
2013-6-4,87,74,62,57,52,36,77,50,19,29.98,29.90,8,0,8,0.12
2013-6-5,86,72,66,63,59,53,83,64,39,29.98,29.85,10,0,10,0.27
2013-6-6,84,73,64,64,61,56,88,68,40,29.87,29.68,10,1,10,0.00
2013-6-7,86,77,70,64,60,52,78,57,34,29.80,29.66,6,0,6,0.06
2013-6-8,84,73,66,63,59,52,84,64,35,30.00,29.79,9,1,9,0.00
2013-6-9,86,73,67,65,61,57,84,67,40,30.03,29.90,16,0,16,0.14
2013-6-10,85,73,68,71,60,50,97,67,31,29.91,29.81,14,3,14,0.76
2013-6-11,90,76,66,66,60,23,89,61,28,29.98,29.88,9,0,9,0.00
2013-6-12,94,81,70,68,64,58,80,58,32,29.99,29.86,11,2,11,0.00
2013-6-13,84,78,71,71,65,57,74,66,55,29.88,29.68,16,2,16,0.35
2013-6-14,85,74,49,57,52,15,77,49,25,29.98,29.83,5,0,5,0.00
2013-6-15,88,75,63,73,52,47,71,47,26,30.06,29.96,10,1,10,0.00
2013-6-16,90,80,68,68,56,53,96,47,30,30.01,29.92,12,1,12,0.00
2013-6-17,86,78,70,66,64,58,84,63,39,29.98,29.85,7,1,7,0.49
2013-6-18,79,73,69,69,62,58,90,70,51,29.90,29.77,10,1,10,0.80
2013-6-19,87,75,64,62,58,-36,84,59,29,30.01,29.87,6,0,6,0.00
2013-6-20,87,74,67,63,60,55,80,62,35,30.13,30.00,12,0,12,0.69
2013-6-21,86,75,67,73,61,54,96,63,35,30.18,30.07,7,0,7,0.00
2013-6-22,90,77,67,62,58,24,80,54,25,30.17,30.01,7,0,7,0.00
2013-6-23,103,78,68,75,58,51,76,53,28,30.14,30.02,6,0,6,0.18
2013-6-24,91,78,-23,66,61,-34,81,58,31,30.15,30.01,9,1,9,0.18
2013-6-25,87,77,71,66,63,60,78,63,42,30.10,29.96,10,1,10,0.00
2013-6-26,85,76,72,70,66,60,83,73,50,29.99,29.81,10,1,10,0.43
2013-6-27,88,76,68,71,66,62,89,74,46,29.87,29.73,12,1,12,0.92
2013-6-28,86,77,71,69,64,55,89,67,44,29.79,29.61,12,1,12,0.00
2013-6-29,87,76,67,66,58,47,89,58,25,29.65,29.59,11,1,11,0.41
2013-6-30,90,77,68,60,55,42,71,49,19,29.73,29.62,10,1,10,0.18
2013-7-1,103,72,67,64,61,55,83,68,38,29.84,29.71,12,0,12,0.67
2013-7-2,82,73,68,66,64,61,87,74,52,30.00,29.83,7,0,7,0.26
2013-7-3,74,70,67,68,65,63,90,84,71,30.28,29.99,4,0,4,0.63
2013-7-4,77,70,66,68,66,63,93,86,68,30.10,30.01,1,0,1,0.35
2013-7-5,81,73,69,70,65,59,96,77,49,30.11,30.03,12,1,12,0.18
2013-7-6,80,71,67,69,66,60,96,84,62,30.08,30.03,8,0,8,1.88
2013-7-7,74,69,67,68,66,62,96,90,72,30.10,30.02,6,0,6,1.88
2013-7-8,89,75,67,70,64,55,96,73,33,30.14,30.03,7,0,7,0.00
2013-7-9,93,79,70,69,65,57,87,65,31,30.11,29.98,8,0,8,0.18
2013-7-10,89,77,72,72,67,60,83,72,42,30.04,29.86,9,0,9,0.37
2013-7-11,87,76,70,70,66,60,86,73,42,29.92,29.82,7,0,7,0.39
2013-7-12,87,75,68,67,61,53,88,66,32,29.92,29.84,7,0,7,0.18
2013-7-13,88,73,68,67,60,54,83,64,33,30.02,29.89,9,0,9,0.59
2013-7-14,87,75,68,70,65,59,89,72,40,30.15,30.00,0,0,0,0.13
2013-7-15,90,78,68,65,61,54,82,59,33,30.23,30.14,0,0,0,0.00
2013-7-16,92,81,71,66,63,42,80,57,19,30.27,30.16,61,0,61,0.00
2013-7-17,93,81,73,68,64,57,80,59,31,30.24,30.08,0,0,0,0.02
2013-7-18,92,80,71,66,64,60,81,62,36,30.18,29.99,0,0,0,0.02
2013-7-19,91,81,30,67,64,9,80,59,34,30.06,29.91,0,0,0,0.00
2013-7-20,93,81,74,69,65,33,76,60,19,29.97,29.84,0,0,0,0.08
2013-7-21,86,76,73,70,66,31,82,71,19,29.96,29.86,2,0,2,0.53
2013-7-22,84,74,71,70,66,61,86,77,49,29.94,29.77,16,1,16,0.69
2013-7-23,83,75,70,69,65,62,87,74,50,29.88,29.76,12,1,12,0.02
2013-7-24,88,76,70,69,66,56,89,73,40,29.84,29.76,9,0,9,0.53
2013-7-25,87,75,66,64,58,52,82,58,30,29.99,29.83,5,0,5,0.00
2013-7-26,88,74,65,66,59,54,77,60,36,30.02,29.91,9,0,9,0.29
2013-7-27,83,74,70,66,63,55,84,70,44,29.95,29.82,12,0,12,0.12
2013-7-28,86,75,69,65,58,47,84,58,27,30.01,29.85,8,0,8,0.00
2013-7-29,84,72,62,52,48,36,65,44,19,30.13,30.00,6,0,6,0.00
2013-7-30,81,71,63,60,55,51,76,58,38,30.17,30.07,0,0,0,0.00
2013-7-31,76,71,66,69,62,58,98,74,59,30.08,29.91,11,0,11,0.20
2013-8-1,87,76,70,70,64,57,89,68,38,29.93,29.87,7,0,7,0.18
2013-8-2,88,76,67,62,57,49,80,54,27,29.99,29.91,57,0,57,0.00
2013-8-3,85,76,69,65,61,57,77,60,40,29.99,29.91,9,1,9,0.00
2013-8-5,87,81,74,58,52,39,56,38,22,29.96,29.90,8,0,8,0.00
2013-8-6,87,78,71,66,61,2,71,57,39,29.96,29.89,8,0,8,0.00
2013-8-7,84,76,72,70,66,61,86,72,56,29.98,29.88,10,1,10,0.33
2013-8-8,82,75,71,70,66,61,81,72,61,29.99,29.91,7,0,7,0.02
2013-8-9,84,74,71,70,68,60,88,81,48,30.02,29.94,9,0,9,0.04
2013-8-10,90,78,72,71,68,0,90,73,42,30.06,29.99,9,0,9,0.96
2013-8-11,78,74,73,69,68,67,86,81,71,30.06,30.01,0,0,0,0.00
2013-8-12,84,76,70,73,68,63,92,75,54,30.05,29.91,10,1,10,0.00
2013-8-13,87,78,72,69,64,58,86,66,39,29.92,29.81,11,1,11,0.00
2013-8-14,83,74,67,61,54,45,74,52,29,30.00,29.88,57,0,57,0.00
2013-8-15,84,72,63,60,52,48,63,51,34,30.02,29.94,7,0,7,0.00
2013-8-16,82,73,67,62,57,52,73,59,39,30.04,29.96,5,0,5,0.00
2013-8-17,76,70,12,62,58,4,83,66,45,30.08,30.01,2,0,2,0.61
2013-8-18,80,70,67,65,63,56,89,78,46,30.12,30.03,11,0,11,0.29
2013-8-19,80,72,68,71,65,62,97,78,55,30.09,30.00,2,0,2,0.10
2013-8-20,87,76,68,67,64,58,90,69,40,30.11,30.02,6,0,6,0.00
2013-8-21,82,73,70,69,66,63,88,78,56,30.15,30.05,11,0,11,0.22
2013-8-22,87,77,69,69,64,57,91,67,37,30.11,29.96,6,0,6,0.00
2013-8-23,86,75,71,68,65,58,87,72,40,30.04,29.94,4,0,4,0.00
2013-8-24,88,75,68,65,59,45,87,62,23,30.17,30.02,6,0,6,0.00
2013-8-25,86,74,65,59,55,50,76,54,29,30.30,30.16,4,0,4,0.00
2013-8-26,86,79,71,58,55,51,63,45,32,30.25,30.07,9,0,9,0.00
2013-8-27,86,75,67,64,61,57,83,64,38,30.09,29.97,5,0,5,0.00
2013-8-28,89,78,70,69,63,56,89,63,34,30.01,29.92,7,0,7,0.00
2013-8-29,91,80,74,68,66,62,81,64,38,29.96,29.87,7,0,7,0.00
2013-8-30,91,79,71,68,64,58,83,63,34,29.96,29.85,11,0,11,0.00
2013-8-31,91,79,33,69,65,12,82,64,34,29.91,29.79,10,0,10,0.08
2013-9-1,86,75,36,70,66,29,83,73,47,29.85,29.77,13,1,13,0.72
2013-9-2,86,75,69,69,65,60,91,73,44,29.89,29.78,10,1,10,0.00
2013-9-3,85,75,67,68,63,57,88,69,43,29.96,29.80,1,0,1,1.08
2013-9-4,86,74,64,60,56,52,81,57,31,30.06,29.95,4,0,4,0.00
2013-9-5,85,74,64,58,54,23,76,53,26,30.10,30.04,0,0,0,0.00
2013-9-6,86,75,65,60,56,48,78,55,27,30.12,30.00,5,0,5,0.00
2013-9-7,87,75,64,62,58,52,79,57,34,30.04,29.93,9,0,9,0.00
2013-9-8,87,77,68,65,61,55,82,61,35,29.96,29.88,6,0,6,0.00
2013-9-9,77,76,75,62,61,60,61,60,58,30.04,29.92,0,0,0,0.00
2013-9-10,90,83,72,65,58,52,76,45,29,30.16,30.03,11,0,11,0.00
2013-9-11,90,77,69,65,61,56,82,60,33,30.17,30.04,7,0,7,0.00
2013-9-12,84,74,70,68,64,62,84,72,52,30.04,29.84,10,0,10,0.53
2013-9-13,79,71,62,65,53,38,88,58,24,29.93,29.83,4,0,4,0.02
2013-9-14,77,65,55,47,44,40,69,49,27,30.02,29.91,4,0,4,0.00
2013-9-15,82,68,57,57,50,47,73,56,31,30.08,30.01,9,0,9,0.00
2013-9-16,84,72,63,59,55,32,79,57,19,30.10,30.04,5,0,5,0.00
2013-9-17,79,71,64,58,54,50,70,57,41,30.15,30.06,0,0,0,0.00
2013-9-18,74,69,66,58,55,52,67,61,48,30.14,30.06,2,0,2,0.00
2013-9-19,85,73,65,60,55,51,78,54,37,30.12,29.98,57,0,57,0.00
2013-9-20,85,74,65,62,57,50,82,59,30,30.01,29.82,11,0,11,0.00
2013-9-21,73,70,63,64,58,53,89,67,56,29.83,29.70,6,0,6,2.71
2013-9-22,76,65,56,55,50,43,83,60,32,29.87,29.76,6,0,6,0.00
2013-9-23,81,66,55,55,50,46,77,57,31,29.96,29.86,6,0,6,0.00
2013-9-24,79,68,60,59,55,50,80,64,39,29.99,29.83,7,0,7,0.00
2013-9-25,68,67,65,63,62,59,89,83,73,29.84,29.77,0,0,0,0.47
2013-9-26,79,69,64,63,58,49,90,71,36,29.96,29.81,7,0,7,0.00
2013-9-27,79,69,59,66,51,44,95,56,30,30.09,29.96,0,0,0,0.00
2013-9-28,78,66,59,56,53,49,80,63,38,30.15,30.02,2,0,2,0.00
2013-9-29,75,67,62,56,52,47,74,58,39,30.08,29.94,6,0,6,0.00
2013-9-30,76,67,57,95,52,46,83,59,35,30.02,29.93,8,0,8,0.00
2013-10-1,80,70,59,57,53,29,81,56,33,30.09,29.98,10,0,10,0.00
2013-10-2,80,70,62,61,57,53,81,63,42,30.11,30.00,7,0,7,0.00
2013-10-3,83,74,68,59,56,52,72,55,34,30.07,29.98,8,0,8,0.00
2013-10-4,84,75,67,60,56,49,75,54,31,30.10,30.01,7,0,7,0.00
2013-10-5,85,73,64,62,58,54,82,62,36,30.07,29.93,7,0,7,0.00
2013-10-6,85,73,65,61,56,49,81,58,31,29.94,29.74,14,2,14,0.00
2013-10-7,72,63,56,55,46,38,79,56,30,30.01,29.81,6,0,10,0.31
2013-10-8,74,62,51,45,41,36,67,48,31,30.07,30.00,0,0,0,0.00
2013-10-9,75,64,54,50,46,42,73,53,33,30.14,30.03,0,0,0,0.00
2013-10-10,75,64,54,50,46,41,78,56,30,30.09,29.97,3,0,3,0.00
2013-10-11,78,66,54,52,47,44,75,53,31,30.02,29.91,0,0,0,0.00
2013-10-12,80,66,56,58,50,45,82,57,32,30.04,29.94,0,0,0,0.00
2013-10-13,76,68,59,56,52,49,78,59,40,30.15,30.03,0,0,0,0.00
2013-10-14,79,69,61,56,52,47,76,57,34,30.16,30.03,0,0,0,0.00
2013-10-15,72,67,62,59,55,51,83,66,49,30.07,29.96,0,0,0,0.00
2013-10-16,65,62,61,54,52,51,76,69,64,29.98,29.93,0,0,0,0.00
2013-10-25,52,46,38,24,19,14,56,35,22,30.33,30.25,0,0,0,0.00
2013-10-26,56,44,31,31,22,15,70,46,21,30.25,30.02,16,2,16,0.00
2013-10-27,62,55,50,50,34,22,93,45,31,30.06,29.99,9,0,9,0.00
2013-10-28,67,58,54,49,46,21,81,65,19,30.20,30.04,13,1,13,0.00
2013-10-29,70,60,54,56,48,41,97,65,36,30.26,30.13,7,0,7,0.00
2013-10-30,76,66,26,51,49,12,74,57,33,30.19,30.05,14,1,14,0.00
2013-10-31,71,66,61,55,50,46,69,57,45,30.06,29.58,22,4,22,0.00
2013-11-1,70,64,55,62,48,34,90,58,29,29.75,29.60,17,2,17,0.49
2013-11-2,62,54,48,43,35,22,74,51,22,30.02,29.73,10,0,10,0.00
2013-11-3,59,50,43,38,32,25,72,53,27,30.23,30.00,0,0,0,0.00
2013-11-4,64,51,40,36,31,26,67,48,25,30.33,30.22,6,0,6,0.00
2013-11-5,66,54,48,36,32,28,59,44,25,30.36,30.22,6,0,6,0.00
2013-11-6,72,60,50,48,39,29,58,46,33,30.23,29.98,11,1,11,0.00
2013-11-7,62,54,43,55,39,26,86,59,31,30.20,29.94,5,0,5,0.37
2013-11-8,56,45,35,28,21,6,66,42,19,30.30,30.18,6,0,6,0.00
2013-11-9,54,45,33,30,24,10,66,45,19,30.23,30.12,10,0,10,0.00
2013-11-10,65,52,42,36,27,16,69,41,19,30.23,30.14,8,0,8,0.00
2013-11-11,62,49,38,32,21,14,49,34,19,30.24,30.07,10,0,10,0.00
2013-11-12,51,42,31,34,16,-7,58,37,19,30.46,30.04,7,0,7,0.00
2013-11-13,45,34,26,12,4,-7,46,29,19,30.54,30.36,6,0,6,0.00
2013-11-14,54,39,27,19,12,2,57,37,19,30.39,30.18,57,1,57,0.00
2013-11-15,48,42,35,40,26,15,79,55,34,30.20,30.06,57,0,57,0.08
2013-11-16,66,53,45,48,44,40,84,74,45,30.14,30.01,7,0,7,0.00
2013-11-17,66,58,53,64,54,-10,96,86,65,30.02,29.76,58,1,58,0.83
2013-11-18,64,56,-15,57,37,-45,92,55,19,30.08,29.80,8,0,8,0.04
2013-11-19,108,45,38,70,19,5,52,36,19,30.15,30.06,6,0,9,0.00
2013-11-20,57,46,36,28,22,14,56,39,19,30.23,30.09,6,0,6,0.00
2013-11-21,59,50,42,39,30,21,57,46,37,30.28,30.17,6,0,6,0.00
2013-11-22,56,54,52,55,48,38,96,79,56,30.22,30.10,6,0,6,0.15
2013-11-23,53,46,32,49,29,-3,86,55,19,30.31,30.12,6,0,6,0.00
2013-11-24,37,29,23,2,-5,-12,32,22,19,30.47,30.31,6,0,6,0.00
2013-11-25,38,32,26,24,-2,-11,67,25,19,30.36,30.09,5,0,5,0.10
2013-11-26,43,37,34,41,33,24,92,83,67,30.10,29.66,5,0,5,1.85
2013-11-27,36,32,29,31,17,10,80,55,43,30.20,29.74,10,0,10,0.04
2013-11-28,42,33,26,18,10,-7,58,40,19,30.37,30.19,72,0,72,0.02
2013-11-29,49,36,27,25,17,4,71,49,19,30.47,30.37,6,0,6,0.00
2013-11-30,86,42,31,69,22,18,62,46,30,30.43,30.20,8,0,8,0.02
2013-12-1,54,43,30,31,26,3,72,53,33,30.21,29.91,9,1,9,0.00
2013-12-2,50,47,45,44,39,30,83,74,50,29.92,29.73,1,0,1,0.08
2013-12-3,55,50,46,48,45,42,96,83,72,29.81,29.75,2,0,2,0.20
2013-12-4,66,58,-16,52,49,-20,88,73,58,29.90,29.80,12,1,12,0.00
2013-12-5,70,65,60,62,58,23,86,77,66,29.95,29.83,20,3,20,0.02
2013-12-6,67,48,38,60,41,32,82,79,71,30.09,29.81,12,0,12,1.51
2013-12-7,97,37,12,89,29,6,81,74,69,30.32,30.09,8,0,8,0.00
2013-12-8,44,39,34,40,34,26,89,83,71,30.25,29.99,4,0,4,0.94
2013-12-9,108,46,40,100,42,33,96,85,72,30.06,29.92,10,0,10,0.51
2013-12-10,43,37,30,34,27,19,83,69,46,30.27,29.91,6,0,6,0.47
2013-12-11,67,34,25,24,19,4,74,56,19,30.35,30.23,8,0,8,0.00
2013-12-12,39,31,25,18,9,-5,61,42,19,30.43,30.29,5,0,5,0.00
2013-12-13,46,35,24,14,8,0,61,36,19,30.31,30.04,5,0,5,0.00
2013-12-14,46,42,36,45,32,1,96,70,19,30.08,29.71,8,1,8,0.45
2013-12-15,44,36,31,40,26,19,84,66,55,30.11,29.75,11,1,11,0.00
2013-12-16,108,38,30,79,24,20,72,59,40,30.14,30.01,10,2,10,0.00
2013-12-17,54,44,34,28,23,1,65,46,19,30.14,29.91,18,2,18,0.00
2013-12-18,46,39,28,21,10,0,60,34,19,30.25,30.14,9,0,9,0.00
2013-12-19,46,46,46,6,6,6,19,19,19,30.20,30.20,0,0,0,0.00
2013-12-20,46,46,46,6,6,6,19,19,19,30.20,30.20,0,0,0,0.00
2013-12-21,46,46,-2,6,6,0,19,19,19,30.20,30.20,0,0,0,0.00
2013-12-22,56,41,-2,50,38,0,85,61,77,29.97,0.00,8,1,8,0.00
2013-12-23,98,44,34,80,34,18,91,68,50,30.25,29.93,10,0,10,0.06
2013-12-24,36,32,25,19,7,-22,57,37,19,30.37,30.23,57,0,57,0.00
2013-12-25,42,30,21,17,7,-1,56,39,19,30.35,30.20,8,0,8,0.00
2013-12-26,90,36,28,66,17,5,62,47,19,30.29,30.20,9,0,9,0.00
2013-12-27,108,37,28,70,16,3,59,44,19,30.38,30.25,7,0,7,0.00
2013-12-28,43,36,29,35,24,0,86,62,41,30.30,29.86,3,0,3,0.51
2013-12-29,47,43,39,44,39,35,96,87,80,29.95,29.76,32,2,32,0.98
2013-12-30,43,39,36,38,28,23,86,67,53,30.13,29.94,61,1,61,0.00
2013-12-31,42,34,28,25,19,12,71,56,32,30.35,30.12,10,1,10,0.00
2014-1-1,46,34,26,38,20,16,95,57,35,30.25,29.99,10,1,10,0.00
2014-1-2,67,33,21,52,24,2,88,71,43,30.08,29.68,17,2,17,0.33